createdAt,value
2023-04-11T00:01:43.219Z,29.50
2023-04-11T00:04:11.935Z,29.40
2023-04-11T00:06:39.945Z,29.90
2023-04-11T00:09:07.896Z,29.40
2023-04-11T00:11:35.875Z,29.70
2023-04-11T00:14:05.538Z,29.70
2023-04-11T00:16:34.349Z,29.70
2023-04-11T00:19:02.609Z,29.60
2023-04-11T00:21:30.639Z,29.90
2023-04-11T00:23:58.655Z,29.70
2023-04-11T00:26:27.215Z,29.80
2023-04-11T00:28:55.393Z,29.90
2023-04-11T00:31:24.976Z,30.00
2023-04-11T00:33:52.994Z,30.00
2023-04-11T00:36:21.199Z,30.10
2023-04-11T00:38:49.388Z,29.90
2023-04-11T00:41:17.620Z,29.80
2023-04-11T00:43:45.642Z,30.00
2023-04-11T00:46:14.734Z,30.10
2023-04-11T00:48:44.233Z,30.20
2023-04-11T00:51:12.244Z,30.60
2023-04-11T00:53:40.360Z,30.10
2023-04-11T00:56:09.763Z,30.30
2023-04-11T00:58:38.431Z,30.30
2023-04-11T01:01:09.618Z,30.50
2023-04-11T01:03:38.348Z,30.60
2023-04-11T01:06:09.887Z,30.50
2023-04-11T01:08:39.337Z,30.00
2023-04-11T01:11:09.793Z,30.10
2023-04-11T01:13:40.569Z,30.40
2023-04-11T01:16:10.273Z,30.40
2023-04-11T01:18:38.501Z,30.50
2023-04-11T01:21:10.048Z,30.50
2023-04-11T01:23:39.550Z,30.60
2023-04-11T01:26:08.051Z,30.40
2023-04-11T01:28:36.048Z,30.40
2023-04-11T01:31:04.084Z,30.50
2023-04-11T01:33:32.074Z,30.80
2023-04-11T01:36:00.201Z,30.70
2023-04-11T01:38:28.390Z,31.30
2023-04-11T01:40:59.184Z,30.80
2023-04-11T01:43:27.454Z,31.00
2023-04-11T01:45:55.509Z,31.00
2023-04-11T01:48:23.667Z,31.10
2023-04-11T01:50:52.992Z,31.50
2023-04-11T01:53:20.965Z,31.20
2023-04-11T01:55:48.937Z,32.00
2023-04-11T01:58:18.214Z,31.40
2023-04-11T02:00:46.178Z,31.30
2023-04-11T02:03:14.334Z,31.60
2023-04-11T02:05:43.960Z,31.70
2023-04-11T02:08:12.257Z,31.70
2023-04-11T02:10:40.206Z,31.50
2023-04-11T02:13:08.149Z,31.40
2023-04-11T02:15:37.554Z,31.50
2023-04-11T02:18:06.942Z,31.50
2023-04-11T02:20:35.013Z,31.40
2023-04-11T02:23:04.458Z,31.70
2023-04-11T02:25:32.671Z,31.70
2023-04-11T02:28:01.333Z,32.00
2023-04-11T02:30:29.523Z,31.80
2023-04-11T02:32:58.861Z,31.70
2023-04-11T02:35:27.112Z,31.60
2023-04-11T02:37:55.171Z,31.80
2023-04-11T02:40:23.230Z,32.00
2023-04-11T02:42:51.234Z,32.30
2023-04-11T02:45:19.378Z,32.10
2023-04-11T02:47:47.345Z,32.20
2023-04-11T02:50:16.918Z,31.60
2023-04-11T02:52:47.634Z,32.00
2023-04-11T02:55:15.947Z,31.90
2023-04-11T02:57:43.944Z,31.70
2023-04-11T03:00:13.520Z,31.90
2023-04-11T03:02:42.250Z,31.90
2023-04-11T03:05:10.734Z,32.10
2023-04-11T03:07:40.544Z,31.50
2023-04-11T03:10:09.955Z,32.40
2023-04-11T03:12:38.115Z,32.30
2023-04-11T03:15:07.229Z,32.10
2023-04-11T03:17:35.375Z,32.20
2023-04-11T03:20:07.118Z,32.10
2023-04-11T03:22:35.273Z,32.20
2023-04-11T03:25:05.385Z,32.40
2023-04-11T03:27:33.383Z,32.40
2023-04-11T03:30:01.465Z,32.40
2023-04-11T03:32:29.604Z,32.80
2023-04-11T03:35:01.575Z,32.40
2023-04-11T03:37:29.603Z,32.50
2023-04-11T03:39:57.782Z,32.50
2023-04-11T03:42:27.469Z,32.60
2023-04-11T03:44:55.440Z,32.80
2023-04-11T03:47:23.392Z,31.70
2023-04-11T03:49:51.917Z,32.00
2023-04-11T03:52:20.100Z,32.90
2023-04-11T03:54:48.125Z,32.20
2023-04-11T03:57:16.278Z,32.80
2023-04-11T03:59:47.800Z,32.70
2023-04-11T04:02:16.846Z,31.90
2023-04-11T04:04:48.619Z,31.50
2023-04-11T04:07:17.989Z,30.50
2023-04-11T04:09:46.293Z,29.60
2023-04-11T04:12:14.448Z,29.50
2023-04-11T04:14:42.437Z,29.60
2023-04-11T04:17:13.043Z,29.60
2023-04-11T04:19:41.253Z,29.50
2023-04-11T04:22:11.846Z,29.60
2023-04-11T04:24:42.012Z,29.90
2023-04-11T04:27:10.160Z,30.00
2023-04-11T04:29:39.003Z,29.70
2023-04-11T04:32:10.888Z,29.90
2023-04-11T04:34:46.892Z,29.80
2023-04-11T04:37:21.691Z,30.80
2023-04-11T04:39:54.101Z,29.80
2023-04-11T04:42:23.844Z,30.00
2023-04-11T04:44:52.254Z,30.00
2023-04-11T04:47:22.326Z,30.00
2023-04-11T04:49:56.529Z,29.90
2023-04-11T04:52:25.738Z,29.90
2023-04-11T04:54:57.785Z,29.90
2023-04-11T04:57:25.864Z,29.90
2023-04-11T04:59:53.966Z,30.00
2023-04-11T05:02:33.207Z,29.70
2023-04-11T05:05:04.235Z,30.00
2023-04-11T05:07:32.395Z,30.00
2023-04-11T05:10:00.330Z,29.80
2023-04-11T05:12:28.741Z,30.00
2023-04-11T05:14:56.897Z,29.50
2023-04-11T05:17:27.724Z,29.80
2023-04-11T05:19:55.784Z,29.80
2023-04-11T05:22:25.064Z,29.80
2023-04-11T05:24:53.056Z,29.70
2023-04-11T05:27:21.026Z,29.80
2023-04-11T05:29:49.045Z,29.70
2023-04-11T05:32:16.980Z,29.60
2023-04-11T05:34:58.823Z,29.80
2023-04-11T05:37:31.059Z,29.90
2023-04-11T05:39:59.913Z,29.50
2023-04-11T05:42:27.920Z,29.80
2023-04-11T05:44:55.862Z,29.20
2023-04-11T05:47:25.003Z,29.80
2023-04-11T05:49:52.987Z,29.70
2023-04-11T05:52:21.231Z,29.60
2023-04-11T05:54:50.682Z,29.70
2023-04-11T05:57:18.704Z,29.70
2023-04-11T05:59:49.655Z,29.40
2023-04-11T06:02:17.843Z,29.60
2023-04-11T06:04:46.011Z,29.40
2023-04-11T06:07:14.123Z,29.20
2023-04-11T06:09:42.469Z,29.50
2023-04-11T06:12:12.069Z,29.20
2023-04-11T06:14:40.690Z,29.40
2023-04-11T06:17:09.463Z,29.50
2023-04-11T06:19:38.238Z,29.30
2023-04-11T06:22:06.327Z,29.40
2023-04-11T06:24:38.882Z,29.30
2023-04-11T06:27:09.799Z,29.40
2023-04-11T06:29:39.280Z,29.00
2023-04-11T06:32:07.716Z,29.20
2023-04-11T06:34:36.210Z,28.90
2023-04-11T06:37:04.229Z,28.90
2023-04-11T06:39:32.188Z,28.70
2023-04-11T06:42:00.446Z,28.90
2023-04-11T06:44:28.655Z,28.80
2023-04-11T06:46:59.052Z,28.90
2023-04-11T06:49:29.020Z,28.90
2023-04-11T06:51:57.092Z,28.90
2023-04-11T06:54:25.045Z,28.50
2023-04-11T06:56:53.158Z,28.70
2023-04-11T06:59:21.601Z,28.90
2023-04-11T07:01:53.571Z,28.90
2023-04-11T07:04:23.135Z,28.90
2023-04-11T07:06:51.674Z,28.80
2023-04-11T07:09:19.623Z,28.30
2023-04-11T07:11:47.637Z,28.40
2023-04-11T07:14:16.053Z,29.20
2023-04-11T07:16:44.120Z,28.40
2023-04-11T07:19:12.154Z,27.90
2023-04-11T07:21:41.865Z,28.20
2023-04-11T07:24:11.746Z,28.00
2023-04-11T07:26:42.286Z,28.10
2023-04-11T07:29:12.363Z,28.00
2023-04-11T07:31:44.658Z,27.70
2023-04-11T07:34:12.669Z,28.00
2023-04-11T07:36:42.539Z,27.90
2023-04-11T07:39:13.473Z,27.90
2023-04-11T07:41:41.551Z,28.00
2023-04-11T07:44:09.605Z,27.70
2023-04-11T07:46:37.653Z,27.90
2023-04-11T07:49:05.664Z,27.90
2023-04-11T07:51:33.730Z,27.90
2023-04-11T07:54:03.248Z,28.30
2023-04-11T07:56:31.326Z,27.40
2023-04-11T07:58:59.653Z,27.40
2023-04-11T08:01:27.815Z,27.70
2023-04-11T08:03:57.351Z,27.30
2023-04-11T08:06:26.506Z,27.50
2023-04-11T08:08:54.454Z,22.60
2023-04-11T08:11:23.766Z,25.80
2023-04-11T08:13:51.799Z,24.90
2023-04-11T08:16:19.859Z,25.00
2023-04-11T08:18:48.024Z,25.20
2023-04-11T08:21:16.144Z,24.80
2023-04-11T08:23:44.606Z,25.70
2023-04-11T08:26:13.151Z,24.90
2023-04-11T08:28:43.558Z,25.60
2023-04-11T08:31:13.043Z,25.40
2023-04-11T08:33:41.768Z,25.40
2023-04-11T08:36:11.243Z,25.20
2023-04-11T08:38:40.634Z,25.70
2023-04-11T08:41:08.762Z,25.30
2023-04-11T08:43:37.669Z,25.20
2023-04-11T08:46:08.771Z,24.60
2023-04-11T08:48:37.073Z,25.00
2023-04-11T08:51:05.468Z,24.40
2023-04-11T08:53:37.743Z,25.20
2023-04-11T08:56:06.327Z,24.10
2023-04-11T08:58:34.280Z,25.00
2023-04-11T09:01:27.267Z,25.10
2023-04-11T09:03:56.563Z,24.60
2023-04-11T09:06:26.558Z,24.50
2023-04-11T09:08:54.540Z,24.30
2023-04-11T09:11:22.577Z,24.50
2023-04-11T09:14:07.314Z,24.30
2023-04-11T09:16:36.907Z,24.30
2023-04-11T09:19:05.074Z,24.20
2023-04-11T09:21:49.404Z,24.40
2023-04-11T09:24:18.480Z,24.30
2023-04-11T09:26:46.566Z,24.20
2023-04-11T09:29:37.111Z,23.60
2023-04-11T09:32:06.881Z,24.40
2023-04-11T09:34:39.114Z,24.10
2023-04-11T09:37:08.592Z,24.00
2023-04-11T09:39:36.942Z,24.30
2023-04-11T09:42:25.069Z,24.40
2023-04-11T09:44:53.088Z,24.20
2023-04-11T09:47:22.852Z,24.30
2023-04-11T09:49:52.765Z,23.30
2023-04-11T09:52:21.729Z,24.00
2023-04-11T09:54:51.993Z,23.70
2023-04-11T09:57:23.520Z,24.00
2023-04-11T09:59:54.299Z,23.80
2023-04-11T10:02:23.866Z,23.00
2023-04-11T10:04:54.637Z,23.40
2023-04-11T10:07:23.388Z,23.70
2023-04-11T10:09:51.668Z,23.50
2023-04-11T10:12:32.643Z,23.60
2023-04-11T10:15:08.430Z,23.70
2023-04-11T10:17:38.066Z,23.60
2023-04-11T10:20:44.751Z,23.40
2023-04-11T10:23:13.998Z,23.00
2023-04-11T10:25:56.309Z,23.30
2023-04-11T10:28:38.145Z,23.30
2023-04-11T10:31:09.841Z,23.30
2023-04-11T10:33:41.863Z,23.10
2023-04-11T10:36:12.524Z,23.10
2023-04-11T10:38:49.431Z,23.20
2023-04-11T10:41:31.221Z,23.30
2023-04-11T10:44:18.210Z,23.10
2023-04-11T10:46:53.458Z,23.00
2023-04-11T10:49:40.998Z,23.20
2023-04-11T10:52:19.098Z,23.20
2023-04-11T10:54:47.364Z,23.50
2023-04-11T10:57:15.748Z,23.10
2023-04-11T11:00:12.982Z,23.30
2023-04-11T11:02:42.955Z,23.00
2023-04-11T11:05:24.648Z,23.80
2023-04-11T11:07:54.698Z,23.10
2023-04-11T11:10:40.010Z,23.10
2023-04-11T11:13:08.290Z,23.00
2023-04-11T11:15:38.358Z,23.20
2023-04-11T11:18:09.741Z,22.80
2023-04-11T11:20:39.910Z,22.90
2023-04-11T11:23:09.971Z,23.00
2023-04-11T11:25:38.194Z,22.70
2023-04-11T11:28:08.386Z,22.70
2023-04-11T11:30:37.587Z,22.70
2023-04-11T11:33:19.272Z,22.50
2023-04-11T11:35:53.833Z,22.60
2023-04-11T11:38:23.884Z,22.60
2023-04-11T11:40:53.710Z,22.70
2023-04-11T11:43:21.996Z,22.40
2023-04-11T11:46:12.008Z,22.40
2023-04-11T11:48:40.345Z,22.40
2023-04-11T11:51:09.708Z,22.20
2023-04-11T11:53:38.001Z,22.20
2023-04-11T11:56:16.948Z,22.10
2023-04-11T11:58:46.099Z,23.00
2023-04-11T12:01:17.095Z,22.40
2023-04-11T12:03:48.218Z,22.80
2023-04-11T12:06:18.183Z,22.80
2023-04-11T12:08:50.244Z,22.70
2023-04-11T12:11:19.222Z,22.80
2023-04-11T12:13:53.086Z,22.90
2023-04-11T12:16:23.211Z,22.80
2023-04-11T12:18:51.221Z,22.50
2023-04-11T12:21:20.649Z,22.70
2023-04-11T12:23:48.546Z,22.90
2023-04-11T12:26:17.651Z,22.40
2023-04-11T12:28:45.679Z,22.70
2023-04-11T12:31:14.459Z,22.70
2023-04-11T12:33:42.589Z,22.50
2023-04-11T12:36:12.128Z,22.70
2023-04-11T12:38:42.100Z,22.50
2023-04-11T12:43:42.202Z,22.40
2023-04-11T12:46:11.484Z,22.30
2023-04-11T12:48:39.480Z,22.30
2023-04-11T12:51:07.900Z,22.70
2023-04-11T12:53:35.872Z,22.60
2023-04-11T12:56:06.064Z,22.30
2023-04-11T12:58:34.041Z,22.50
2023-04-11T13:01:02.014Z,22.50
2023-04-11T13:03:30.114Z,22.60
2023-04-11T13:05:58.147Z,21.90
2023-04-11T13:08:27.171Z,22.30
2023-04-11T13:10:55.969Z,22.30
2023-04-11T13:13:25.757Z,22.10
2023-04-11T13:15:53.672Z,22.30
2023-04-11T13:18:21.694Z,21.90
2023-04-11T13:20:49.596Z,22.10
2023-04-11T13:23:17.634Z,22.30
2023-04-11T13:25:45.661Z,22.00
2023-04-11T13:28:13.657Z,22.20
2023-04-11T13:30:43.009Z,22.20
2023-04-11T13:33:11.174Z,22.60
2023-04-11T13:35:39.295Z,22.80
2023-04-11T13:38:07.325Z,22.40
2023-04-11T13:40:35.857Z,22.30
2023-04-11T13:43:04.133Z,22.50
2023-04-11T13:45:32.543Z,22.40
2023-04-11T13:48:02.045Z,22.10
2023-04-11T13:50:30.140Z,22.40
2023-04-11T13:52:58.165Z,22.00
2023-04-11T13:55:26.156Z,22.00
2023-04-11T13:57:54.177Z,21.90
2023-04-11T14:00:22.976Z,21.90
2023-04-11T14:02:52.642Z,21.70
2023-04-11T14:05:22.360Z,21.90
2023-04-11T14:07:50.382Z,22.00
2023-04-11T14:10:18.461Z,22.20
2023-04-11T14:12:46.869Z,21.80
2023-04-11T14:15:14.830Z,21.50
2023-04-11T14:17:43.914Z,21.40
2023-04-11T14:20:12.437Z,21.90
2023-04-11T14:22:42.011Z,21.70
2023-04-11T14:25:11.366Z,21.50
2023-04-11T14:27:41.908Z,21.50
2023-04-11T14:30:11.605Z,21.30
2023-04-11T14:32:40.409Z,21.80
2023-04-11T14:35:09.773Z,21.60
2023-04-11T14:37:38.200Z,21.60
2023-04-11T14:40:10.719Z,21.60
2023-04-11T14:42:39.586Z,21.80
2023-04-11T14:45:08.916Z,21.80
2023-04-11T14:47:37.021Z,22.00
2023-04-11T14:50:05.655Z,21.40
2023-04-11T14:52:33.624Z,19.90
2023-04-11T14:55:01.593Z,20.50
2023-04-11T14:57:46.955Z,20.00
2023-04-11T15:00:19.972Z,20.20
2023-04-11T15:02:51.286Z,19.50
2023-04-11T15:05:20.132Z,18.10
2023-04-11T15:07:50.009Z,16.00
2023-04-11T15:10:20.920Z,16.00
2023-04-11T15:12:50.637Z,16.90
2023-04-11T15:15:18.585Z,16.70
2023-04-11T15:17:48.804Z,16.00
2023-04-11T15:20:19.369Z,16.00
2023-04-11T15:22:47.480Z,15.50
2023-04-11T15:25:17.059Z,16.70
2023-04-11T15:27:45.088Z,17.20
2023-04-11T15:30:15.208Z,18.00
2023-04-11T15:32:44.474Z,18.90
2023-04-11T15:35:12.730Z,19.40
2023-04-11T15:37:41.101Z,19.60
2023-04-11T15:40:11.793Z,19.40
2023-04-11T15:42:39.832Z,19.30
2023-04-11T15:45:09.093Z,19.10
2023-04-11T15:47:38.474Z,19.60
2023-04-11T15:50:07.651Z,19.60
2023-04-11T15:52:35.662Z,19.20
2023-04-11T15:55:03.665Z,19.90
2023-04-11T15:57:31.736Z,20.20
2023-04-11T15:59:59.853Z,20.20
2023-04-11T16:02:28.231Z,20.30
2023-04-11T16:04:58.773Z,20.40
2023-04-11T16:07:26.844Z,20.70
2023-04-11T16:09:55.523Z,20.90
2023-04-11T16:12:23.660Z,21.00
2023-04-11T16:14:51.601Z,20.80
2023-04-11T16:17:20.487Z,21.10
2023-04-11T16:19:51.926Z,21.30
2023-04-11T16:22:21.494Z,21.70
2023-04-11T16:24:49.597Z,21.50
2023-04-11T16:27:18.788Z,21.50
2023-04-11T16:29:46.904Z,21.70
2023-04-11T16:32:15.033Z,21.60
2023-04-11T16:34:42.992Z,22.10
2023-04-11T16:37:11.039Z,21.80
2023-04-11T16:39:40.344Z,22.00
2023-04-11T16:42:08.252Z,22.40
2023-04-11T16:44:36.189Z,22.40
2023-04-11T16:47:04.446Z,22.50
2023-04-11T16:49:32.583Z,22.60
2023-04-11T16:52:00.629Z,22.50
2023-04-11T16:54:28.546Z,22.50
2023-04-11T16:56:57.896Z,22.70
2023-04-11T16:59:25.834Z,22.50
2023-04-11T17:01:53.950Z,23.00
2023-04-11T17:04:22.229Z,23.00
2023-04-11T17:06:50.393Z,23.40
2023-04-11T17:09:19.109Z,23.40
2023-04-11T17:11:47.108Z,23.40
2023-04-11T17:14:16.466Z,23.60
2023-04-11T17:16:45.901Z,23.70
2023-04-11T17:19:14.042Z,23.80
2023-04-11T17:21:42.093Z,24.10
2023-04-11T17:24:10.111Z,24.20
2023-04-11T17:26:38.078Z,24.20
2023-04-11T17:29:06.705Z,23.70
2023-04-11T17:31:36.030Z,23.90
2023-04-11T17:34:04.328Z,24.70
2023-04-11T17:36:32.296Z,24.80
2023-04-11T17:39:00.278Z,24.90
2023-04-11T17:41:28.296Z,24.90
2023-04-11T17:43:57.281Z,25.30
2023-04-11T17:46:25.948Z,25.20
2023-04-11T17:48:55.497Z,25.40
2023-04-11T17:51:23.493Z,25.10
2023-04-11T17:53:52.103Z,25.70
2023-04-11T17:56:20.474Z,25.50
2023-04-11T17:58:48.891Z,25.80
2023-04-11T18:01:16.893Z,26.10
2023-04-11T18:03:45.069Z,26.30
2023-04-11T18:06:14.891Z,19.90
2023-04-11T18:11:14.018Z,16.40
2023-04-11T18:13:44.013Z,15.30
2023-04-11T18:16:12.191Z,15.50
2023-04-11T18:18:40.400Z,16.00
2023-04-11T18:21:08.459Z,15.50
2023-04-11T18:23:39.086Z,16.00
2023-04-11T18:26:07.093Z,15.80
2023-04-11T18:28:35.069Z,16.20
2023-04-11T18:31:03.219Z,20.20
2023-04-11T18:33:31.991Z,20.30
2023-04-11T18:36:00.259Z,19.90
2023-04-11T18:38:28.385Z,20.30
2023-04-11T18:40:59.930Z,20.30
2023-04-11T18:43:29.446Z,21.00
2023-04-11T18:45:57.387Z,21.80
2023-04-11T18:48:25.463Z,22.30
2023-04-11T18:51:00.610Z,22.50
2023-04-11T18:53:29.933Z,22.90
2023-04-11T18:56:02.857Z,23.10
2023-04-11T18:58:33.187Z,23.20
2023-04-11T19:01:13.998Z,23.50
2023-04-11T19:03:44.137Z,22.90
2023-04-11T19:06:12.997Z,23.80
2023-04-11T19:08:41.732Z,24.20
2023-04-11T19:11:11.113Z,23.80
2023-04-11T19:13:39.093Z,23.90
2023-04-11T19:16:07.872Z,24.20
2023-04-11T19:18:35.874Z,24.90
2023-04-11T19:21:04.052Z,25.50
2023-04-11T19:23:32.195Z,25.10
2023-04-11T19:26:00.698Z,25.30
2023-04-11T19:28:30.163Z,25.70
2023-04-11T19:30:58.160Z,25.00
2023-04-11T19:33:26.707Z,25.20
2023-04-11T19:35:55.015Z,25.40
2023-04-11T19:38:23.039Z,25.40
2023-04-11T19:40:51.045Z,26.20
2023-04-11T19:43:19.654Z,26.30
2023-04-11T19:45:48.990Z,26.30
2023-04-11T19:48:17.403Z,25.90
2023-04-11T19:50:45.412Z,26.50
2023-04-11T19:53:13.422Z,26.30
2023-04-11T19:55:41.663Z,26.10
2023-04-11T19:58:09.638Z,26.60
2023-04-11T20:00:38.481Z,26.30
2023-04-11T20:03:12.114Z,26.60
2023-04-11T20:05:40.139Z,26.70
2023-04-11T20:08:08.142Z,26.60
2023-04-11T20:10:37.419Z,26.70
2023-04-11T20:13:05.796Z,26.90
2023-04-11T20:15:34.222Z,27.00
2023-04-11T20:18:02.236Z,27.30
2023-04-11T20:20:33.499Z,27.40
2023-04-11T20:23:04.739Z,27.40
2023-04-11T20:25:32.859Z,27.20
2023-04-11T20:28:01.201Z,27.10
2023-04-11T20:30:29.842Z,27.20
2023-04-11T20:32:57.913Z,26.80
2023-04-11T20:35:26.156Z,27.40
2023-04-11T20:37:55.980Z,27.50
2023-04-11T20:40:24.266Z,27.70
2023-04-11T20:42:52.308Z,27.60
2023-04-11T20:45:21.866Z,27.90
2023-04-11T20:47:50.588Z,27.70
2023-04-11T20:50:19.292Z,27.60
2023-04-11T20:52:52.238Z,27.50
2023-04-11T20:55:21.621Z,27.60
2023-04-11T20:57:49.550Z,28.00
2023-04-11T21:00:19.718Z,28.10
2023-04-11T21:02:50.273Z,28.10
2023-04-11T21:05:20.904Z,27.80
2023-04-11T21:07:48.904Z,28.00
2023-04-11T21:10:17.025Z,28.40
2023-04-11T21:12:51.091Z,28.40
2023-04-11T21:15:20.235Z,28.20
2023-04-11T21:17:48.873Z,28.50
2023-04-11T21:20:20.258Z,28.40
2023-04-11T21:22:49.630Z,28.70
2023-04-11T21:25:17.997Z,28.50
2023-04-11T21:27:48.022Z,28.60
2023-04-11T21:30:16.121Z,28.50
2023-04-11T21:32:44.191Z,28.60
2023-04-11T21:35:13.103Z,28.80
2023-04-11T21:37:41.121Z,28.90
2023-04-11T21:40:10.419Z,28.80
2023-04-11T21:42:39.123Z,28.70
2023-04-11T21:45:09.867Z,29.00
2023-04-11T21:47:38.009Z,29.00
2023-04-11T21:50:07.364Z,28.90
2023-04-11T21:52:35.325Z,28.80
2023-04-11T21:55:03.709Z,28.80
2023-04-11T21:57:34.305Z,28.80
2023-04-11T22:00:02.430Z,29.20
2023-04-11T22:02:32.070Z,29.20
2023-04-11T22:05:06.305Z,29.20
2023-04-11T22:07:39.266Z,30.10
2023-04-11T22:10:12.067Z,29.40
2023-04-11T22:12:40.514Z,29.30
2023-04-11T22:15:12.360Z,29.50
2023-04-11T22:17:43.439Z,29.60
2023-04-11T22:20:13.196Z,29.80
2023-04-11T22:22:42.048Z,29.80
2023-04-11T22:25:11.415Z,29.50
2023-04-11T22:27:39.423Z,29.70
2023-04-11T22:30:09.591Z,29.80
2023-04-11T22:32:37.926Z,30.00
2023-04-11T22:35:09.184Z,29.90
2023-04-11T22:37:37.133Z,30.00
2023-04-11T22:40:06.761Z,29.50
2023-04-11T22:42:35.658Z,29.80
2023-04-11T22:45:03.923Z,29.30
2023-04-11T22:47:34.051Z,29.80
2023-04-11T22:50:03.441Z,30.00
2023-04-11T22:52:32.850Z,29.40
2023-04-11T22:55:00.840Z,29.90
2023-04-11T22:57:28.846Z,30.20
2023-04-11T22:59:56.847Z,30.20
2023-04-11T23:02:25.170Z,29.80
2023-04-11T23:04:53.458Z,30.00
2023-04-11T23:07:22.185Z,29.50
2023-04-11T23:09:52.461Z,29.80
2023-04-11T23:12:20.902Z,29.60
2023-04-11T23:14:50.363Z,29.50
2023-04-11T23:17:18.431Z,29.90
2023-04-11T23:19:47.058Z,30.00
2023-04-11T23:22:15.057Z,29.90
2023-04-11T23:24:43.031Z,30.00
2023-04-11T23:27:13.233Z,30.10
2023-04-11T23:29:41.552Z,30.20
2023-04-11T23:32:09.466Z,31.30
2023-04-11T23:34:37.430Z,30.30
2023-04-11T23:37:05.388Z,30.30
2023-04-11T23:39:33.346Z,30.60
2023-04-11T23:42:01.299Z,30.50
2023-04-11T23:44:31.113Z,30.70
2023-04-11T23:47:00.003Z,30.30
2023-04-11T23:49:27.962Z,30.50
2023-04-11T23:51:56.037Z,30.90
2023-04-11T23:54:26.655Z,30.30
2023-04-11T23:56:56.862Z,31.20
2023-04-11T23:59:24.917Z,31.00
